createdAt,value
2019-03-31T00:02:14.368Z,101657.42
2019-03-31T00:04:45.026Z,101662.64
2019-03-31T00:07:15.566Z,101659.63
2019-03-31T00:09:46.087Z,101662.25
2019-03-31T00:12:16.718Z,101665.62
2019-03-31T00:14:47.145Z,101666.80
2019-03-31T00:17:18.382Z,101667.78
2019-03-31T00:19:50.398Z,101663.41
2019-03-31T00:22:21.191Z,101668.41
2019-03-31T00:24:53.626Z,101657.19
2019-03-31T00:27:24.246Z,101657.56
2019-03-31T00:29:54.618Z,101658.50
2019-03-31T00:32:25.142Z,101662.50
2019-03-31T00:34:55.655Z,101662.38
2019-03-31T00:37:26.207Z,101659.91
2019-03-31T00:39:57.031Z,101658.14
2019-03-31T00:42:27.571Z,101667.36
2019-03-31T00:44:58.088Z,101668.28
2019-03-31T00:47:28.615Z,101660.21
2019-03-31T00:49:59.140Z,101664.70
2019-03-31T00:52:29.741Z,101674.66
2019-03-31T00:55:04.403Z,101669.53
2019-03-31T00:57:35.518Z,101673.52
2019-03-31T01:00:08.444Z,101675.44
2019-03-31T01:02:40.709Z,101676.09
2019-03-31T01:05:11.710Z,101669.78
2019-03-31T01:07:42.457Z,101675.16
2019-03-31T01:10:13.363Z,101673.38
2019-03-31T01:12:44.033Z,101681.40
2019-03-31T01:15:17.218Z,101684.62
2019-03-31T01:17:48.008Z,101668.55
2019-03-31T01:20:20.013Z,101672.14
2019-03-31T01:22:50.681Z,101679.31
2019-03-31T01:25:21.452Z,101679.06
2019-03-31T01:27:52.320Z,101686.84
2019-03-31T01:30:23.514Z,101686.11
2019-03-31T01:32:55.443Z,101686.11
2019-03-31T01:35:26.423Z,101686.34
2019-03-31T01:37:57.013Z,101690.56
2019-03-31T01:40:27.483Z,101690.73
2019-03-31T01:42:57.991Z,101696.28
2019-03-31T01:45:28.326Z,101697.33
2019-03-31T01:47:59.389Z,101702.28
2019-03-31T01:50:30.792Z,101710.44
2019-03-31T01:53:01.128Z,101710.96
2019-03-31T01:55:32.617Z,101716.31
2019-03-31T01:58:03.469Z,101718.51
2019-03-31T02:00:39.320Z,101723.79
2019-03-31T02:03:10.363Z,101728.73
2019-03-31T02:05:40.955Z,101731.75
2019-03-31T02:08:11.632Z,101734.64
2019-03-31T02:10:42.255Z,101723.96
2019-03-31T02:13:13.161Z,101722.55
2019-03-31T02:15:43.559Z,101717.86
2019-03-31T02:18:14.754Z,101720.06
2019-03-31T02:20:45.083Z,101723.18
2019-03-31T02:23:16.728Z,101724.63
2019-03-31T02:25:48.476Z,101728.34
2019-03-31T02:28:20.038Z,101722.88
2019-03-31T02:30:50.501Z,101730.68
2019-03-31T02:33:22.162Z,101724.73
2019-03-31T02:35:52.599Z,101726.28
2019-03-31T02:38:23.018Z,101727.72
2019-03-31T02:40:53.726Z,101723.89
2019-03-31T02:43:24.439Z,101722.77
2019-03-31T02:45:54.867Z,101731.45
2019-03-31T02:48:25.338Z,101729.44
2019-03-31T02:50:56.766Z,101723.70
2019-03-31T02:53:27.253Z,101737.83
2019-03-31T02:55:58.072Z,101739.31
2019-03-31T02:58:30.146Z,101739.89
2019-03-31T03:01:01.097Z,101740.50
2019-03-31T03:03:33.434Z,101744.84
2019-03-31T03:06:05.492Z,101743.02
2019-03-31T03:08:39.105Z,101741.07
2019-03-31T03:11:10.547Z,101743.77
2019-03-31T03:13:43.649Z,101744.34
2019-03-31T03:16:32.413Z,101739.94
2019-03-31T03:19:03.215Z,101739.94
2019-03-31T03:21:33.890Z,101745.55
2019-03-31T03:24:04.316Z,101747.23
2019-03-31T03:26:34.934Z,101757.56
2019-03-31T03:29:06.487Z,101758.58
2019-03-31T03:31:37.087Z,101758.58
2019-03-31T03:34:07.907Z,101766.28
2019-03-31T03:36:42.599Z,101770.28
2019-03-31T03:39:10.299Z,101773.87
2019-03-31T03:41:41.214Z,101775.55
2019-03-31T03:44:11.836Z,101774.73
2019-03-31T03:46:42.608Z,101770.58
2019-03-31T03:49:13.721Z,101772.56
2019-03-31T03:51:44.272Z,101767.17
2019-03-31T03:54:14.882Z,101768.38
2019-03-31T03:56:45.213Z,101757.30
2019-03-31T03:59:16.298Z,101758.81
2019-03-31T04:01:47.212Z,101768.63
2019-03-31T04:04:18.037Z,101769.14
2019-03-31T04:06:48.572Z,101768.14
2019-03-31T04:09:19.199Z,101781.02
2019-03-31T04:11:49.534Z,101781.02
2019-03-31T04:14:20.896Z,101785.42
2019-03-31T04:16:51.297Z,101779.13
2019-03-31T04:19:22.145Z,101782.73
2019-03-31T04:21:52.638Z,101778.43
2019-03-31T04:24:23.513Z,101778.36
2019-03-31T04:26:54.332Z,101787.19
2019-03-31T04:29:25.124Z,101792.86
2019-03-31T04:31:55.544Z,101795.11
2019-03-31T04:34:25.949Z,101807.25
2019-03-31T04:36:56.433Z,101817.63
2019-03-31T04:39:27.142Z,101823.05
2019-03-31T04:41:57.963Z,101818.16
2019-03-31T04:44:29.550Z,101830.02
2019-03-31T04:47:00.672Z,101827.92
2019-03-31T04:49:31.223Z,101833.18
2019-03-31T04:52:01.558Z,101838.80
2019-03-31T04:54:32.165Z,101837.37
2019-03-31T04:57:04.521Z,101847.31
2019-03-31T04:59:35.034Z,101843.56
2019-03-31T05:02:06.325Z,101847.25
2019-03-31T05:04:37.168Z,101856.49
2019-03-31T05:07:07.485Z,101851.80
2019-03-31T05:09:38.232Z,101853.95
2019-03-31T05:12:08.734Z,101865.50
2019-03-31T05:14:39.337Z,101876.98
2019-03-31T05:17:10.101Z,101867.77
2019-03-31T05:19:41.243Z,101877.89
2019-03-31T05:22:11.926Z,101876.05
2019-03-31T05:24:42.252Z,101876.73
2019-03-31T05:27:12.586Z,101873.84
2019-03-31T05:29:43.389Z,101876.06
2019-03-31T05:32:14.302Z,101881.49
2019-03-31T05:34:45.227Z,101879.27
2019-03-31T05:37:16.075Z,101879.27
2019-03-31T05:39:46.709Z,101876.29
2019-03-31T05:42:17.243Z,101892.40
2019-03-31T05:44:48.056Z,101887.58
2019-03-31T05:47:18.834Z,101887.42
2019-03-31T05:49:49.609Z,101890.72
2019-03-31T05:52:20.752Z,101892.56
2019-03-31T05:54:51.257Z,101894.72
2019-03-31T05:57:21.966Z,101902.96
2019-03-31T05:59:52.746Z,101908.16
2019-03-31T06:02:23.258Z,101911.47
2019-03-31T06:04:53.680Z,101918.64
2019-03-31T06:07:24.514Z,101915.15
2019-03-31T06:09:55.352Z,101920.86
2019-03-31T06:12:26.224Z,101918.92
2019-03-31T06:14:57.366Z,101920.13
2019-03-31T06:17:29.029Z,101918.33
2019-03-31T06:19:59.485Z,101919.34
2019-03-31T06:22:30.304Z,101915.44
2019-03-31T06:25:00.821Z,101925.49
2019-03-31T06:27:31.220Z,101927.65
2019-03-31T06:30:01.807Z,101918.39
2019-03-31T06:32:32.133Z,101913.28
2019-03-31T06:35:02.857Z,101912.73
2019-03-31T06:37:33.256Z,101918.95
2019-03-31T06:40:03.895Z,101930.38
2019-03-31T06:42:34.519Z,101928.05
2019-03-31T06:45:07.216Z,101934.50
2019-03-31T06:47:37.837Z,101934.40
2019-03-31T06:50:08.763Z,101941.81
2019-03-31T06:52:39.411Z,101950.91
2019-03-31T06:55:10.984Z,101947.05
2019-03-31T06:57:41.679Z,101948.63
2019-03-31T07:00:13.347Z,101954.91
2019-03-31T07:02:44.160Z,101953.09
2019-03-31T07:05:14.978Z,101958.47
2019-03-31T07:07:45.356Z,101956.14
2019-03-31T07:10:16.332Z,101956.83
2019-03-31T07:12:47.429Z,101961.90
2019-03-31T07:15:18.547Z,101962.76
2019-03-31T07:17:49.300Z,101963.20
2019-03-31T07:20:20.718Z,101965.77
2019-03-31T07:22:51.457Z,101979.56
2019-03-31T07:25:22.217Z,101980.62
2019-03-31T07:27:52.958Z,101986.66
2019-03-31T07:30:23.936Z,101985.87
2019-03-31T07:32:54.307Z,101988.70
2019-03-31T07:35:24.854Z,101981.06
2019-03-31T07:37:55.467Z,101981.06
2019-03-31T07:40:26.353Z,101985.48
2019-03-31T07:42:57.100Z,101985.59
2019-03-31T07:45:27.451Z,101997.38
2019-03-31T07:47:58.034Z,101997.89
2019-03-31T07:50:28.529Z,101997.73
2019-03-31T07:52:59.337Z,102002.80
2019-03-31T07:55:29.982Z,102006.20
2019-03-31T07:58:02.299Z,102003.87
2019-03-31T08:00:32.883Z,102000.47
2019-03-31T08:03:03.602Z,102001.70
2019-03-31T08:05:37.606Z,101999.00
2019-03-31T08:15:35.755Z,102003.69
2019-03-31T08:18:07.084Z,102009.85
2019-03-31T08:20:37.835Z,102004.41
2019-03-31T08:23:08.664Z,102010.28
2019-03-31T08:25:39.298Z,102010.28
2019-03-31T08:28:10.436Z,102011.92
2019-03-31T08:30:42.194Z,102015.17
2019-03-31T08:33:13.204Z,102021.92
2019-03-31T08:35:47.508Z,102025.16
2019-03-31T08:38:16.342Z,102021.92
2019-03-31T08:40:46.882Z,102028.75
2019-03-31T08:43:17.394Z,102026.66
2019-03-31T08:45:47.922Z,102022.37
2019-03-31T08:48:18.640Z,102022.37
2019-03-31T08:50:49.468Z,102033.67
2019-03-31T08:53:20.430Z,102037.51
2019-03-31T08:55:51.163Z,102043.84
2019-03-31T08:58:22.786Z,102052.20
2019-03-31T09:00:57.238Z,102052.20
2019-03-31T09:03:27.764Z,102052.72
2019-03-31T09:06:02.025Z,102056.63
2019-03-31T09:08:30.667Z,102049.17
2019-03-31T09:11:02.188Z,102051.45
2019-03-31T09:13:32.936Z,102055.33
2019-03-31T09:16:03.486Z,102063.69
2019-03-31T09:18:34.334Z,102070.17
2019-03-31T09:21:10.782Z,102065.20
2019-03-31T09:23:42.396Z,102073.59
2019-03-31T09:26:13.747Z,102066.27
2019-03-31T09:28:44.106Z,102071.50
2019-03-31T09:31:15.459Z,102078.16
2019-03-31T09:33:46.092Z,102075.53
2019-03-31T09:36:17.134Z,102077.73
2019-03-31T09:38:48.641Z,102082.44
2019-03-31T09:41:19.226Z,102093.09
2019-03-31T09:43:49.830Z,102087.84
2019-03-31T09:46:20.433Z,102089.05
2019-03-31T09:48:51.013Z,102088.48
2019-03-31T09:51:22.134Z,102083.58
2019-03-31T09:53:52.947Z,102080.88
2019-03-31T09:56:24.081Z,102078.69
2019-03-31T09:58:54.688Z,102081.55
2019-03-31T10:01:25.788Z,102077.40
2019-03-31T10:03:56.276Z,102083.45
2019-03-31T10:06:30.642Z,102080.14
2019-03-31T10:08:59.779Z,102074.45
2019-03-31T10:11:30.151Z,102074.64
2019-03-31T10:14:00.685Z,102075.19
2019-03-31T10:16:31.389Z,102081.96
2019-03-31T10:19:02.042Z,102077.05
2019-03-31T10:21:32.581Z,102077.05
2019-03-31T10:24:03.120Z,102072.12
2019-03-31T10:26:35.030Z,102077.23
2019-03-31T10:29:06.315Z,102077.23
2019-03-31T10:31:37.937Z,102081.70
2019-03-31T10:34:08.281Z,102081.70
2019-03-31T10:36:44.728Z,102087.68
2019-03-31T10:39:11.414Z,102078.77
2019-03-31T10:41:42.101Z,102072.59
2019-03-31T10:44:13.056Z,102072.59
2019-03-31T10:46:43.692Z,102080.22
2019-03-31T10:49:14.369Z,102079.53
2019-03-31T10:51:45.080Z,102080.45
2019-03-31T10:54:15.667Z,102085.83
2019-03-31T10:56:46.610Z,102077.66
2019-03-31T10:59:17.227Z,102077.66
2019-03-31T11:01:47.976Z,102089.55
2019-03-31T11:04:18.499Z,102089.55
2019-03-31T11:06:58.821Z,102088.44
2019-03-31T11:09:21.685Z,102089.27
2019-03-31T11:11:52.575Z,102089.64
2019-03-31T11:14:23.738Z,102089.64
2019-03-31T11:16:54.284Z,102084.56
2019-03-31T11:19:24.854Z,102084.56
2019-03-31T11:21:59.937Z,102093.91
2019-03-31T11:24:30.791Z,102089.34
2019-03-31T11:27:01.544Z,102086.02
2019-03-31T11:29:32.210Z,102093.42
2019-03-31T11:32:03.548Z,102093.42
2019-03-31T11:34:34.475Z,102088.97
2019-03-31T11:37:13.392Z,102099.61
2019-03-31T11:39:38.797Z,102092.53
2019-03-31T11:42:09.262Z,102095.01
2019-03-31T11:44:39.687Z,102096.89
2019-03-31T11:47:10.496Z,102098.73
2019-03-31T11:49:42.450Z,102088.41
2019-03-31T11:52:13.590Z,102088.41
2019-03-31T11:54:45.902Z,102089.09
2019-03-31T11:57:17.714Z,102089.19
2019-03-31T11:59:49.841Z,102088.69
2019-03-31T12:02:27.268Z,102090.86
2019-03-31T12:04:53.432Z,102090.86
2019-03-31T12:07:28.211Z,102087.78
2019-03-31T12:09:57.325Z,102088.39
2019-03-31T12:12:29.116Z,102098.20
2019-03-31T12:15:01.196Z,102098.20
2019-03-31T12:17:32.217Z,102087.26
2019-03-31T12:20:03.101Z,102087.26
2019-03-31T12:22:33.889Z,102089.34
2019-03-31T12:25:05.163Z,102089.34
2019-03-31T12:27:35.858Z,102087.13
2019-03-31T12:30:07.425Z,102087.13
2019-03-31T12:32:38.964Z,102089.50
2019-03-31T12:35:10.167Z,102085.73
2019-03-31T12:37:43.097Z,102088.90
2019-03-31T12:40:28.796Z,102085.86
2019-03-31T12:42:59.307Z,102083.23
2019-03-31T12:45:31.481Z,102082.45
2019-03-31T12:48:01.963Z,102074.31
2019-03-31T12:50:32.824Z,102074.31
2019-03-31T12:53:01.701Z,102081.14
2019-03-31T12:55:30.401Z,102064.75
2019-03-31T12:57:59.993Z,102064.75
2019-03-31T13:00:30.688Z,102068.45
2019-03-31T13:03:01.713Z,102059.09
2019-03-31T13:05:33.153Z,102061.34
2019-03-31T13:08:04.154Z,102070.73
2019-03-31T13:10:37.736Z,102063.00
2019-03-31T13:13:08.805Z,102056.92
2019-03-31T13:15:39.676Z,102065.55
2019-03-31T13:18:10.779Z,102060.25
2019-03-31T13:20:41.496Z,102068.41
2019-03-31T13:23:12.637Z,102063.67
2019-03-31T13:25:43.507Z,102063.36
2019-03-31T13:28:14.651Z,102063.36
2019-03-31T13:30:45.183Z,102052.99
2019-03-31T13:33:16.382Z,102047.87
2019-03-31T13:35:46.920Z,102047.87
2019-03-31T13:38:17.380Z,102050.54
2019-03-31T13:40:50.540Z,102046.55
2019-03-31T13:43:21.424Z,102049.23
2019-03-31T13:45:52.054Z,102051.84
2019-03-31T13:48:22.873Z,102050.23
2019-03-31T13:50:59.237Z,102043.72
2019-03-31T13:53:30.090Z,102035.34
2019-03-31T13:56:01.511Z,102035.34
2019-03-31T13:58:33.649Z,102028.91
2019-03-31T14:01:04.947Z,102028.91
2019-03-31T14:03:35.582Z,102029.77
2019-03-31T14:06:06.694Z,102034.41
2019-03-31T14:08:37.250Z,102034.41
2019-03-31T14:11:08.067Z,102034.33
2019-03-31T14:13:39.247Z,102032.83
2019-03-31T14:16:09.750Z,102029.77
2019-03-31T14:18:40.945Z,102029.77
2019-03-31T14:21:11.430Z,102034.82
2019-03-31T14:23:43.888Z,102037.77
2019-03-31T14:26:14.011Z,102037.77
2019-03-31T14:28:44.549Z,102041.83
2019-03-31T14:31:15.687Z,102038.03
2019-03-31T14:33:47.444Z,102030.70
2019-03-31T14:36:18.352Z,102025.19
2019-03-31T14:38:49.514Z,102025.19
2019-03-31T14:41:20.247Z,102026.97
2019-03-31T14:43:51.169Z,102024.52
2019-03-31T14:46:22.550Z,102030.43
2019-03-31T14:48:53.363Z,102024.28
2019-03-31T14:51:25.383Z,102024.28
2019-03-31T14:53:56.057Z,102025.44
2019-03-31T14:56:27.433Z,102025.25
2019-03-31T14:58:58.259Z,102028.97
2019-03-31T15:01:29.080Z,102021.33
2019-03-31T15:04:00.556Z,102021.33
2019-03-31T15:06:31.070Z,102014.14
2019-03-31T15:09:01.610Z,102014.14
2019-03-31T15:11:34.575Z,102016.23
2019-03-31T15:14:13.713Z,102016.33
2019-03-31T15:16:48.425Z,102014.94
2019-03-31T15:19:18.466Z,102018.03
2019-03-31T15:21:48.999Z,102014.65
2019-03-31T15:24:19.841Z,102014.65
2019-03-31T15:26:50.351Z,102009.11
2019-03-31T15:29:20.873Z,102010.99
2019-03-31T15:31:51.409Z,102015.50
2019-03-31T15:34:22.234Z,102020.20
2019-03-31T15:36:53.082Z,102020.39
2019-03-31T15:39:23.612Z,102020.39
2019-03-31T15:41:54.117Z,102017.30
2019-03-31T15:44:24.660Z,102017.30
2019-03-31T15:46:55.807Z,102006.97
2019-03-31T15:49:26.326Z,102006.97
2019-03-31T15:51:56.864Z,102019.55
2019-03-31T15:54:25.836Z,102015.11
2019-03-31T15:56:56.695Z,102013.73
2019-03-31T15:59:27.837Z,102009.02
2019-03-31T16:01:58.360Z,102009.35
2019-03-31T16:04:28.902Z,102003.69
2019-03-31T16:06:59.431Z,102003.69
2019-03-31T16:09:29.416Z,102008.28
2019-03-31T16:11:59.710Z,102006.97
2019-03-31T16:14:29.702Z,102006.97
2019-03-31T16:16:59.779Z,102015.20
2019-03-31T16:19:29.776Z,102018.34
2019-03-31T16:21:59.586Z,102017.73
2019-03-31T16:24:39.368Z,102016.72
2019-03-31T16:27:09.413Z,102024.98
2019-03-31T16:29:39.570Z,102025.45
2019-03-31T16:32:09.719Z,102025.45
2019-03-31T16:34:39.902Z,102017.40
2019-03-31T16:37:09.872Z,102017.95
2019-03-31T16:39:39.737Z,102024.96
2019-03-31T16:42:10.263Z,102022.23
2019-03-31T16:44:40.512Z,102022.23
2019-03-31T16:47:10.738Z,102026.14
2019-03-31T16:49:41.551Z,102029.87
2019-03-31T16:52:11.969Z,102028.48
2019-03-31T16:54:41.988Z,102031.64
2019-03-31T16:57:10.750Z,102029.44
2019-03-31T16:59:39.296Z,102029.61
2019-03-31T17:02:10.094Z,102034.95
2019-03-31T17:04:40.133Z,102030.48
2019-03-31T17:07:10.341Z,102041.41
2019-03-31T17:09:50.950Z,102051.42
2019-03-31T17:12:12.643Z,102051.42
2019-03-31T17:14:42.846Z,102053.83
2019-03-31T17:17:12.930Z,102047.90
2019-03-31T17:19:42.993Z,102059.47
2019-03-31T17:22:12.933Z,102056.44
2019-03-31T17:24:42.806Z,102052.35
2019-03-31T17:27:14.189Z,102052.33
2019-03-31T17:29:45.273Z,102060.75
2019-03-31T17:32:15.335Z,102060.75
2019-03-31T17:34:46.775Z,102058.50
2019-03-31T17:37:17.144Z,102056.22
2019-03-31T17:39:47.290Z,102053.80
2019-03-31T17:42:17.659Z,102059.38
2019-03-31T17:44:48.318Z,102058.80
2019-03-31T17:47:18.503Z,102053.97
2019-03-31T17:49:48.851Z,102062.94
2019-03-31T17:52:19.258Z,102057.61
2019-03-31T17:54:49.475Z,102061.06
2019-03-31T17:57:20.496Z,102059.20
2019-03-31T17:59:50.957Z,102066.48
2019-03-31T18:02:21.340Z,102071.19
2019-03-31T18:04:51.309Z,102068.13
2019-03-31T18:07:21.401Z,102079.38
2019-03-31T18:09:52.788Z,102080.12
2019-03-31T18:12:23.161Z,102080.03
2019-03-31T18:14:53.224Z,102082.97
2019-03-31T18:17:23.604Z,102078.63
2019-03-31T18:19:53.727Z,102092.81
2019-03-31T18:22:23.840Z,102092.36
2019-03-31T18:24:53.668Z,102095.14
2019-03-31T18:27:23.559Z,102096.68
2019-03-31T18:29:53.807Z,102102.77
2019-03-31T18:32:24.121Z,102104.47
2019-03-31T18:34:54.006Z,102106.52
2019-03-31T18:37:24.446Z,102105.80
2019-03-31T18:39:54.365Z,102105.28
2019-03-31T18:42:24.299Z,102111.06
2019-03-31T18:44:54.642Z,102111.56
2019-03-31T18:47:24.737Z,102116.42
2019-03-31T18:49:54.970Z,102122.42
2019-03-31T18:52:24.764Z,102123.08
2019-03-31T18:55:12.838Z,102126.88
2019-03-31T18:58:01.075Z,102126.88
2019-03-31T19:00:41.091Z,102133.97
2019-03-31T19:03:48.394Z,102137.84
2019-03-31T19:06:36.266Z,102139.05
2019-03-31T19:09:15.178Z,102143.22
2019-03-31T19:12:02.453Z,102151.80
2019-03-31T19:14:39.796Z,102147.66
2019-03-31T19:17:43.823Z,102157.34
2019-03-31T19:20:23.072Z,102153.05
2019-03-31T19:23:19.929Z,102159.83
2019-03-31T19:26:18.172Z,102161.84
2019-03-31T19:29:06.825Z,102156.52
2019-03-31T19:32:07.864Z,102162.73
2019-03-31T19:34:55.159Z,102164.69
2019-03-31T19:37:42.748Z,102169.59
2019-03-31T19:40:35.378Z,102170.01
2019-03-31T19:43:15.099Z,102165.84
2019-03-31T19:46:10.399Z,102169.42
2019-03-31T19:48:58.171Z,102180.55
2019-03-31T19:51:38.373Z,102173.30
2019-03-31T19:54:40.580Z,102186.41
2019-03-31T19:57:23.878Z,102185.17
2019-03-31T20:00:14.031Z,102186.31
2019-03-31T20:02:57.773Z,102186.69
2019-03-31T20:05:36.145Z,102189.89
2019-03-31T20:08:31.135Z,102197.03
2019-03-31T20:11:12.414Z,102193.83
2019-03-31T20:14:01.611Z,102198.42
2019-03-31T20:16:39.289Z,102202.90
2019-03-31T20:19:28.550Z,102199.69
2019-03-31T20:22:07.374Z,102199.69
2019-03-31T20:24:55.178Z,102201.63
2019-03-31T20:27:30.750Z,102201.67
2019-03-31T20:30:25.697Z,102209.56
2019-03-31T20:33:13.253Z,102208.69
2019-03-31T20:36:02.275Z,102206.78
2019-03-31T20:38:55.788Z,102200.09
2019-03-31T20:41:59.783Z,102207.88
2019-03-31T20:44:29.827Z,102206.23
2019-03-31T20:47:00.636Z,102208.50
2019-03-31T20:49:30.852Z,102212.66
2019-03-31T20:52:01.980Z,102216.13
2019-03-31T20:54:33.282Z,102220.91
2019-03-31T20:57:03.351Z,102217.51
2019-03-31T20:59:33.686Z,102221.05
2019-03-31T21:02:04.047Z,102218.89
2019-03-31T21:04:34.026Z,102219.59
2019-03-31T21:07:03.997Z,102219.20
2019-03-31T21:09:44.781Z,102222.34
2019-03-31T21:12:06.449Z,102224.08
2019-03-31T21:14:36.433Z,102224.17
2019-03-31T21:17:06.650Z,102222.44
2019-03-31T21:19:36.574Z,102223.34
2019-03-31T21:22:07.710Z,102220.41
2019-03-31T21:24:37.644Z,102220.53
2019-03-31T21:27:10.008Z,102228.38
2019-03-31T21:29:39.924Z,102228.55
2019-03-31T21:32:10.031Z,102229.41
2019-03-31T21:34:39.011Z,102229.41
2019-03-31T21:37:09.673Z,102220.47
2019-03-31T21:39:39.560Z,102223.92
2019-03-31T21:42:14.010Z,102224.08
2019-03-31T21:44:44.949Z,102225.88
2019-03-31T21:47:15.152Z,102223.30
2019-03-31T21:49:45.621Z,102227.72
2019-03-31T21:52:16.517Z,102222.22
2019-03-31T21:54:46.431Z,102227.41
2019-03-31T21:57:17.312Z,102229.13
2019-03-31T21:59:47.622Z,102226.66
2019-03-31T22:02:18.448Z,102224.53
2019-03-31T22:04:48.548Z,102228.45
2019-03-31T22:07:18.915Z,102226.27
2019-03-31T22:09:48.978Z,102229.32
2019-03-31T22:12:19.606Z,102225.08
2019-03-31T22:14:49.729Z,102229.89
2019-03-31T22:17:19.956Z,102222.99
2019-03-31T22:19:49.871Z,102220.98
2019-03-31T22:22:19.769Z,102220.98
2019-03-31T22:24:49.721Z,102211.13
2019-03-31T22:27:19.692Z,102220.19
2019-03-31T22:29:49.528Z,102214.69
2019-03-31T22:32:20.060Z,102215.59
2019-03-31T22:34:49.972Z,102208.73
2019-03-31T22:37:19.882Z,102216.49
2019-03-31T22:39:50.417Z,102216.95
2019-03-31T22:42:20.223Z,102217.02
2019-03-31T22:44:50.538Z,102215.77
2019-03-31T22:47:21.803Z,102217.55
2019-03-31T22:49:52.054Z,102220.61
2019-03-31T22:52:21.925Z,102217.23
2019-03-31T22:54:51.730Z,102216.86
2019-03-31T22:57:21.788Z,102221.20
2019-03-31T22:59:51.583Z,102219.94
2019-03-31T23:02:22.405Z,102214.77
2019-03-31T23:04:52.454Z,102214.41
2019-03-31T23:07:23.838Z,102216.63
2019-03-31T23:09:53.804Z,102217.09
2019-03-31T23:12:23.912Z,102210.98
2019-03-31T23:14:53.810Z,102203.27
2019-03-31T23:17:24.041Z,102204.98
2019-03-31T23:19:53.943Z,102199.35
2019-03-31T23:22:27.592Z,102201.97
2019-03-31T23:24:56.520Z,102202.44
2019-03-31T23:27:26.467Z,102197.80
2019-03-31T23:29:56.493Z,102197.42
2019-03-31T23:32:26.743Z,102193.12
2019-03-31T23:34:56.620Z,102200.94
2019-03-31T23:37:26.895Z,102198.44
2019-03-31T23:39:57.068Z,102191.52
2019-03-31T23:45:04.084Z,102191.18
2019-03-31T23:47:34.040Z,102186.91
2019-03-31T23:50:04.295Z,102190.78
2019-03-31T23:52:34.497Z,102185.36
2019-03-31T23:55:05.656Z,102185.36
2019-03-31T23:57:42.340Z,102182.37
